sensor_id;sensor_type;location;lat;lon;timestamp;temperature;humidity
48589;DHT22;34369;51.174;6.738;2023-03-15T00:00:32;2.60;60.60
48589;DHT22;34369;51.174;6.738;2023-03-15T00:03:13;2.60;60.80
48589;DHT22;34369;51.174;6.738;2023-03-15T00:05:51;2.60;61.00
48589;DHT22;34369;51.174;6.738;2023-03-15T00:08:23;2.70;60.80
48589;DHT22;34369;51.174;6.738;2023-03-15T00:10:55;2.80;61.20
48589;DHT22;34369;51.174;6.738;2023-03-15T00:13:29;2.80;61.30
48589;DHT22;34369;51.174;6.738;2023-03-15T00:16:08;2.80;61.60
48589;DHT22;34369;51.174;6.738;2023-03-15T00:18:43;2.80;62.00
48589;DHT22;34369;51.174;6.738;2023-03-15T00:21:16;2.80;62.10
48589;DHT22;34369;51.174;6.738;2023-03-15T00:23:48;2.80;62.30
48589;DHT22;34369;51.174;6.738;2023-03-15T00:26:21;2.90;62.50
48589;DHT22;34369;51.174;6.738;2023-03-15T00:28:54;2.90;62.80
48589;DHT22;34369;51.174;6.738;2023-03-15T00:31:26;3.00;63.00
48589;DHT22;34369;51.174;6.738;2023-03-15T00:34:00;3.00;63.20
48589;DHT22;34369;51.174;6.738;2023-03-15T00:36:33;3.00;63.30
48589;DHT22;34369;51.174;6.738;2023-03-15T00:39:06;3.00;63.40
48589;DHT22;34369;51.174;6.738;2023-03-15T00:41:40;3.00;63.60
48589;DHT22;34369;51.174;6.738;2023-03-15T00:44:15;3.00;63.60
48589;DHT22;34369;51.174;6.738;2023-03-15T00:46:47;3.00;63.70
48589;DHT22;34369;51.174;6.738;2023-03-15T00:49:24;3.10;63.80
48589;DHT22;34369;51.174;6.738;2023-03-15T00:51:57;3.10;64.00
48589;DHT22;34369;51.174;6.738;2023-03-15T00:54:30;3.10;63.90
48589;DHT22;34369;51.174;6.738;2023-03-15T00:57:03;3.10;64.00
48589;DHT22;34369;51.174;6.738;2023-03-15T00:59:36;3.10;64.10
48589;DHT22;34369;51.174;6.738;2023-03-15T01:02:08;3.20;64.10
48589;DHT22;34369;51.174;6.738;2023-03-15T01:04:44;3.20;64.20
48589;DHT22;34369;51.174;6.738;2023-03-15T01:07:16;3.20;64.40
48589;DHT22;34369;51.174;6.738;2023-03-15T01:09:49;3.20;63.90
48589;DHT22;34369;51.174;6.738;2023-03-15T01:12:21;3.20;64.10
48589;DHT22;34369;51.174;6.738;2023-03-15T01:14:54;3.30;64.20
48589;DHT22;34369;51.174;6.738;2023-03-15T01:17:26;3.30;64.30
48589;DHT22;34369;51.174;6.738;2023-03-15T01:20:00;3.30;64.30
48589;DHT22;34369;51.174;6.738;2023-03-15T01:22:35;3.30;64.60
48589;DHT22;34369;51.174;6.738;2023-03-15T01:25:08;3.30;64.20
48589;DHT22;34369;51.174;6.738;2023-03-15T01:27:40;3.30;64.40
48589;DHT22;34369;51.174;6.738;2023-03-15T01:30:13;3.30;64.50
48589;DHT22;34369;51.174;6.738;2023-03-15T01:32:45;3.30;64.60
48589;DHT22;34369;51.174;6.738;2023-03-15T01:35:19;3.40;64.70
48589;DHT22;34369;51.174;6.738;2023-03-15T01:37:51;3.40;64.80
48589;DHT22;34369;51.174;6.738;2023-03-15T01:40:23;3.40;64.80
48589;DHT22;34369;51.174;6.738;2023-03-15T01:43:14;3.40;64.80
48589;DHT22;34369;51.174;6.738;2023-03-15T01:46:04;3.40;65.50
48589;DHT22;34369;51.174;6.738;2023-03-15T01:48:50;3.40;65.40
48589;DHT22;34369;51.174;6.738;2023-03-15T01:51:32;3.30;64.80
48589;DHT22;34369;51.174;6.738;2023-03-15T01:54:09;3.30;65.00
48589;DHT22;34369;51.174;6.738;2023-03-15T01:56:46;3.30;65.00
48589;DHT22;34369;51.174;6.738;2023-03-15T01:59:27;3.30;65.00
48589;DHT22;34369;51.174;6.738;2023-03-15T02:02:02;3.30;65.10
48589;DHT22;34369;51.174;6.738;2023-03-15T02:04:39;3.40;65.10
48589;DHT22;34369;51.174;6.738;2023-03-15T02:07:20;3.30;65.20
48589;DHT22;34369;51.174;6.738;2023-03-15T02:10:00;3.30;65.20
48589;DHT22;34369;51.174;6.738;2023-03-15T02:12:37;3.30;65.10
48589;DHT22;34369;51.174;6.738;2023-03-15T02:15:13;3.30;65.10
48589;DHT22;34369;51.174;6.738;2023-03-15T02:17:47;3.20;65.10
48589;DHT22;34369;51.174;6.738;2023-03-15T02:20:29;3.20;65.00
48589;DHT22;34369;51.174;6.738;2023-03-15T02:23:08;3.20;65.30
48589;DHT22;34369;51.174;6.738;2023-03-15T02:25:49;3.10;65.00
48589;DHT22;34369;51.174;6.738;2023-03-15T02:28:29;3.10;65.10
48589;DHT22;34369;51.174;6.738;2023-03-15T02:31:01;3.10;64.90
48589;DHT22;34369;51.174;6.738;2023-03-15T02:33:38;3.10;64.90
48589;DHT22;34369;51.174;6.738;2023-03-15T02:36:17;3.00;64.90
48589;DHT22;34369;51.174;6.738;2023-03-15T02:38:52;3.00;65.00
48589;DHT22;34369;51.174;6.738;2023-03-15T02:41:30;3.00;65.00
48589;DHT22;34369;51.174;6.738;2023-03-15T02:44:10;2.90;65.20
48589;DHT22;34369;51.174;6.738;2023-03-15T02:46:49;2.80;65.50
48589;DHT22;34369;51.174;6.738;2023-03-15T02:49:25;2.80;65.50
48589;DHT22;34369;51.174;6.738;2023-03-15T02:51:59;2.80;65.60
48589;DHT22;34369;51.174;6.738;2023-03-15T02:54:32;2.80;65.60
48589;DHT22;34369;51.174;6.738;2023-03-15T02:57:08;2.70;65.80
48589;DHT22;34369;51.174;6.738;2023-03-15T02:59:42;2.70;65.80
48589;DHT22;34369;51.174;6.738;2023-03-15T03:02:15;2.70;65.90
48589;DHT22;34369;51.174;6.738;2023-03-15T03:04:48;2.70;65.90
48589;DHT22;34369;51.174;6.738;2023-03-15T03:07:22;2.70;65.90
48589;DHT22;34369;51.174;6.738;2023-03-15T03:09:56;2.70;66.00
48589;DHT22;34369;51.174;6.738;2023-03-15T03:12:28;2.70;65.90
48589;DHT22;34369;51.174;6.738;2023-03-15T03:15:03;2.60;66.00
48589;DHT22;34369;51.174;6.738;2023-03-15T03:17:36;2.60;66.00
48589;DHT22;34369;51.174;6.738;2023-03-15T03:20:10;2.60;66.00
48589;DHT22;34369;51.174;6.738;2023-03-15T03:22:45;2.60;66.20
48589;DHT22;34369;51.174;6.738;2023-03-15T03:25:19;2.60;66.20
48589;DHT22;34369;51.174;6.738;2023-03-15T03:27:51;2.60;66.30
48589;DHT22;34369;51.174;6.738;2023-03-15T03:30:28;2.50;66.30
48589;DHT22;34369;51.174;6.738;2023-03-15T03:33:01;2.60;66.20
48589;DHT22;34369;51.174;6.738;2023-03-15T03:35:35;2.50;66.30
48589;DHT22;34369;51.174;6.738;2023-03-15T03:38:07;2.50;66.30
48589;DHT22;34369;51.174;6.738;2023-03-15T03:40:39;2.50;66.40
48589;DHT22;34369;51.174;6.738;2023-03-15T03:43:12;2.50;66.50
48589;DHT22;34369;51.174;6.738;2023-03-15T03:45:47;2.50;66.50
48589;DHT22;34369;51.174;6.738;2023-03-15T03:48:20;2.50;66.60
48589;DHT22;34369;51.174;6.738;2023-03-15T03:50:52;2.50;66.30
48589;DHT22;34369;51.174;6.738;2023-03-15T03:53:25;2.50;66.50
48589;DHT22;34369;51.174;6.738;2023-03-15T03:55:58;2.50;66.60
48589;DHT22;34369;51.174;6.738;2023-03-15T03:58:33;2.50;66.70
48589;DHT22;34369;51.174;6.738;2023-03-15T04:01:07;2.50;66.50
48589;DHT22;34369;51.174;6.738;2023-03-15T04:03:40;2.40;66.70
48589;DHT22;34369;51.174;6.738;2023-03-15T04:06:12;2.40;66.80
48589;DHT22;34369;51.174;6.738;2023-03-15T04:08:44;2.40;67.00
48589;DHT22;34369;51.174;6.738;2023-03-15T04:11:17;2.40;67.10
48589;DHT22;34369;51.174;6.738;2023-03-15T04:13:49;2.40;67.10
48589;DHT22;34369;51.174;6.738;2023-03-15T04:16:25;2.40;67.20
48589;DHT22;34369;51.174;6.738;2023-03-15T04:18:57;2.40;67.40
48589;DHT22;34369;51.174;6.738;2023-03-15T04:21:30;2.40;67.40
48589;DHT22;34369;51.174;6.738;2023-03-15T04:24:04;2.40;67.50
48589;DHT22;34369;51.174;6.738;2023-03-15T04:26:39;2.30;67.30
48589;DHT22;34369;51.174;6.738;2023-03-15T04:29:12;2.30;67.20
48589;DHT22;34369;51.174;6.738;2023-03-15T04:31:46;2.30;67.20
48589;DHT22;34369;51.174;6.738;2023-03-15T04:34:18;2.30;67.30
48589;DHT22;34369;51.174;6.738;2023-03-15T04:36:51;2.20;67.30
48589;DHT22;34369;51.174;6.738;2023-03-15T04:39:24;2.20;67.40
48589;DHT22;34369;51.174;6.738;2023-03-15T04:41:57;2.20;67.50
48589;DHT22;34369;51.174;6.738;2023-03-15T04:44:29;2.20;67.50
48589;DHT22;34369;51.174;6.738;2023-03-15T04:47:04;2.20;67.50
48589;DHT22;34369;51.174;6.738;2023-03-15T04:49:37;2.20;67.50
48589;DHT22;34369;51.174;6.738;2023-03-15T04:52:11;2.20;67.30
48589;DHT22;34369;51.174;6.738;2023-03-15T04:54:45;2.20;67.40
48589;DHT22;34369;51.174;6.738;2023-03-15T04:57:17;2.20;67.40
48589;DHT22;34369;51.174;6.738;2023-03-15T05:00:12;2.20;67.50
48589;DHT22;34369;51.174;6.738;2023-03-15T05:02:47;2.10;67.90
48589;DHT22;34369;51.174;6.738;2023-03-15T05:05:24;2.00;67.70
48589;DHT22;34369;51.174;6.738;2023-03-15T05:08:04;2.00;67.70
48589;DHT22;34369;51.174;6.738;2023-03-15T05:10:36;2.00;67.80
48589;DHT22;34369;51.174;6.738;2023-03-15T05:13:08;2.00;67.90
48589;DHT22;34369;51.174;6.738;2023-03-15T05:15:40;2.00;68.00
48589;DHT22;34369;51.174;6.738;2023-03-15T05:18:14;2.00;68.10
48589;DHT22;34369;51.174;6.738;2023-03-15T05:20:46;2.00;68.10
48589;DHT22;34369;51.174;6.738;2023-03-15T05:23:19;2.00;68.10
48589;DHT22;34369;51.174;6.738;2023-03-15T05:25:53;2.00;68.10
48589;DHT22;34369;51.174;6.738;2023-03-15T05:28:28;2.00;68.10
48589;DHT22;34369;51.174;6.738;2023-03-15T05:31:01;2.00;68.30
48589;DHT22;34369;51.174;6.738;2023-03-15T05:33:35;2.00;68.30
48589;DHT22;34369;51.174;6.738;2023-03-15T05:36:09;2.00;68.30
48589;DHT22;34369;51.174;6.738;2023-03-15T05:38:45;2.00;68.30
48589;DHT22;34369;51.174;6.738;2023-03-15T05:41:18;2.00;68.30
48589;DHT22;34369;51.174;6.738;2023-03-15T05:43:53;2.00;68.40
48589;DHT22;34369;51.174;6.738;2023-03-15T05:46:25;2.00;68.40
48589;DHT22;34369;51.174;6.738;2023-03-15T05:49:00;2.00;68.50
48589;DHT22;34369;51.174;6.738;2023-03-15T05:51:34;2.00;68.50
48589;DHT22;34369;51.174;6.738;2023-03-15T05:54:29;2.00;68.60
48589;DHT22;34369;51.174;6.738;2023-03-15T05:57:05;2.00;68.90
48589;DHT22;34369;51.174;6.738;2023-03-15T05:59:39;2.00;68.60
48589;DHT22;34369;51.174;6.738;2023-03-15T06:02:12;2.00;68.40
48589;DHT22;34369;51.174;6.738;2023-03-15T06:04:46;2.10;68.30
48589;DHT22;34369;51.174;6.738;2023-03-15T06:07:23;2.10;68.40
48589;DHT22;34369;51.174;6.738;2023-03-15T06:09:57;2.10;68.30
48589;DHT22;34369;51.174;6.738;2023-03-15T06:12:31;2.10;68.30
48589;DHT22;34369;51.174;6.738;2023-03-15T06:15:06;2.20;68.30
48589;DHT22;34369;51.174;6.738;2023-03-15T06:17:42;2.20;68.20
48589;DHT22;34369;51.174;6.738;2023-03-15T06:20:17;2.20;68.30
48589;DHT22;34369;51.174;6.738;2023-03-15T06:22:51;2.20;68.50
48589;DHT22;34369;51.174;6.738;2023-03-15T06:25:24;2.20;68.70
48589;DHT22;34369;51.174;6.738;2023-03-15T06:27:58;2.30;68.10
48589;DHT22;34369;51.174;6.738;2023-03-15T06:30:32;2.30;68.30
48589;DHT22;34369;51.174;6.738;2023-03-15T06:33:06;2.40;68.50
48589;DHT22;34369;51.174;6.738;2023-03-15T06:35:40;2.40;68.50
48589;DHT22;34369;51.174;6.738;2023-03-15T06:38:13;2.40;68.70
48589;DHT22;34369;51.174;6.738;2023-03-15T06:40:46;2.50;68.70
48589;DHT22;34369;51.174;6.738;2023-03-15T06:43:20;2.50;68.80
48589;DHT22;34369;51.174;6.738;2023-03-15T06:45:53;2.50;68.70
48589;DHT22;34369;51.174;6.738;2023-03-15T06:48:29;2.50;68.70
48589;DHT22;34369;51.174;6.738;2023-03-15T06:51:06;2.60;68.70
48589;DHT22;34369;51.174;6.738;2023-03-15T06:53:39;2.60;68.70
48589;DHT22;34369;51.174;6.738;2023-03-15T06:56:12;2.70;68.70
48589;DHT22;34369;51.174;6.738;2023-03-15T06:58:48;2.70;68.60
48589;DHT22;34369;51.174;6.738;2023-03-15T07:01:27;2.80;68.40
48589;DHT22;34369;51.174;6.738;2023-03-15T07:04:05;2.80;68.30
48589;DHT22;34369;51.174;6.738;2023-03-15T07:06:40;2.80;68.20
48589;DHT22;34369;51.174;6.738;2023-03-15T07:09:14;2.80;68.30
48589;DHT22;34369;51.174;6.738;2023-03-15T07:11:47;2.80;68.30
48589;DHT22;34369;51.174;6.738;2023-03-15T07:14:19;2.80;68.30
48589;DHT22;34369;51.174;6.738;2023-03-15T07:16:51;2.80;68.30
48589;DHT22;34369;51.174;6.738;2023-03-15T07:19:32;2.90;68.30
48589;DHT22;34369;51.174;6.738;2023-03-15T07:22:08;3.00;68.40
48589;DHT22;34369;51.174;6.738;2023-03-15T07:24:41;3.00;68.30
48589;DHT22;34369;51.174;6.738;2023-03-15T07:27:14;3.00;68.20
48589;DHT22;34369;51.174;6.738;2023-03-15T07:29:46;3.00;68.20
48589;DHT22;34369;51.174;6.738;2023-03-15T07:32:20;3.00;68.10
48589;DHT22;34369;51.174;6.738;2023-03-15T07:34:55;3.00;68.10
48589;DHT22;34369;51.174;6.738;2023-03-15T07:40:42;3.10;68.40
48589;DHT22;34369;51.174;6.738;2023-03-15T07:43:14;3.10;68.00
48589;DHT22;34369;51.174;6.738;2023-03-15T07:45:47;3.10;67.90
48589;DHT22;34369;51.174;6.738;2023-03-15T07:48:20;3.20;68.00
48589;DHT22;34369;51.174;6.738;2023-03-15T07:50:53;3.20;68.00
48589;DHT22;34369;51.174;6.738;2023-03-15T07:53:31;3.20;68.10
48589;DHT22;34369;51.174;6.738;2023-03-15T07:56:08;3.30;68.00
48589;DHT22;34369;51.174;6.738;2023-03-15T07:58:41;3.30;67.80
48589;DHT22;34369;51.174;6.738;2023-03-15T08:01:15;3.40;67.80
48589;DHT22;34369;51.174;6.738;2023-03-15T08:03:49;3.40;67.90
48589;DHT22;34369;51.174;6.738;2023-03-15T08:06:25;3.50;67.90
48589;DHT22;34369;51.174;6.738;2023-03-15T08:09:00;3.60;67.80
48589;DHT22;34369;51.174;6.738;2023-03-15T08:11:35;3.60;67.70
48589;DHT22;34369;51.174;6.738;2023-03-15T08:14:12;3.60;67.50
48589;DHT22;34369;51.174;6.738;2023-03-15T08:16:45;3.70;67.20
48589;DHT22;34369;51.174;6.738;2023-03-15T08:19:21;3.70;67.10
48589;DHT22;34369;51.174;6.738;2023-03-15T08:21:56;3.80;67.00
48589;DHT22;34369;51.174;6.738;2023-03-15T08:24:30;3.80;66.90
48589;DHT22;34369;51.174;6.738;2023-03-15T08:27:04;3.90;66.70
48589;DHT22;34369;51.174;6.738;2023-03-15T08:29:39;3.90;66.60
48589;DHT22;34369;51.174;6.738;2023-03-15T08:32:15;4.00;66.30
48589;DHT22;34369;51.174;6.738;2023-03-15T08:34:51;4.00;66.10
48589;DHT22;34369;51.174;6.738;2023-03-15T08:37:25;4.10;66.10
48589;DHT22;34369;51.174;6.738;2023-03-15T08:40:02;4.10;66.00
48589;DHT22;34369;51.174;6.738;2023-03-15T08:42:39;4.10;66.10
48589;DHT22;34369;51.174;6.738;2023-03-15T08:45:11;4.20;66.10
48589;DHT22;34369;51.174;6.738;2023-03-15T08:47:46;4.30;66.10
48589;DHT22;34369;51.174;6.738;2023-03-15T08:50:19;4.40;65.80
48589;DHT22;34369;51.174;6.738;2023-03-15T08:52:53;4.50;65.60
48589;DHT22;34369;51.174;6.738;2023-03-15T08:55:27;4.50;65.10
48589;DHT22;34369;51.174;6.738;2023-03-15T08:58:01;4.60;65.20
48589;DHT22;34369;51.174;6.738;2023-03-15T09:00:34;4.70;65.00
48589;DHT22;34369;51.174;6.738;2023-03-15T09:03:07;4.80;64.80
48589;DHT22;34369;51.174;6.738;2023-03-15T09:05:41;4.90;65.20
48589;DHT22;34369;51.174;6.738;2023-03-15T09:08:14;5.00;64.80
48589;DHT22;34369;51.174;6.738;2023-03-15T09:10:54;5.10;64.30
48589;DHT22;34369;51.174;6.738;2023-03-15T09:13:27;5.30;63.60
48589;DHT22;34369;51.174;6.738;2023-03-15T09:16:01;5.30;63.40
48589;DHT22;34369;51.174;6.738;2023-03-15T09:18:34;5.40;63.00
48589;DHT22;34369;51.174;6.738;2023-03-15T09:21:06;5.50;63.50
48589;DHT22;34369;51.174;6.738;2023-03-15T09:23:40;5.60;64.50
48589;DHT22;34369;51.174;6.738;2023-03-15T09:26:14;5.90;66.20
48589;DHT22;34369;51.174;6.738;2023-03-15T09:28:50;6.30;66.70
48589;DHT22;34369;51.174;6.738;2023-03-15T09:31:54;6.90;65.40
48589;DHT22;34369;51.174;6.738;2023-03-15T09:34:39;7.50;62.80
48589;DHT22;34369;51.174;6.738;2023-03-15T09:37:11;8.20;64.30
48589;DHT22;34369;51.174;6.738;2023-03-15T09:39:43;8.60;61.90
48589;DHT22;34369;51.174;6.738;2023-03-15T09:45:40;9.40;57.00
48589;DHT22;34369;51.174;6.738;2023-03-15T09:48:22;9.70;57.60
48589;DHT22;34369;51.174;6.738;2023-03-15T09:51:01;9.80;57.70
48589;DHT22;34369;51.174;6.738;2023-03-15T09:53:38;10.00;55.40
48589;DHT22;34369;51.174;6.738;2023-03-15T09:56:21;10.00;55.60
48589;DHT22;34369;51.174;6.738;2023-03-15T09:58:58;10.00;54.10
48589;DHT22;34369;51.174;6.738;2023-03-15T10:01:35;10.20;55.20
48589;DHT22;34369;51.174;6.738;2023-03-15T10:04:17;10.30;54.30
48589;DHT22;34369;51.174;6.738;2023-03-15T10:07:08;10.40;53.50
48589;DHT22;34369;51.174;6.738;2023-03-15T10:09:44;10.50;53.80
48589;DHT22;34369;51.174;6.738;2023-03-15T10:12:22;10.50;53.60
48589;DHT22;34369;51.174;6.738;2023-03-15T10:15:15;10.60;51.80
48589;DHT22;34369;51.174;6.738;2023-03-15T10:18:15;10.60;50.50
48589;DHT22;34369;51.174;6.738;2023-03-15T10:21:09;10.40;50.00
48589;DHT22;34369;51.174;6.738;2023-03-15T10:23:50;10.20;50.70
48589;DHT22;34369;51.174;6.738;2023-03-15T10:26:29;10.00;50.40
48589;DHT22;34369;51.174;6.738;2023-03-15T10:29:12;9.70;49.60
48589;DHT22;34369;51.174;6.738;2023-03-15T10:31:51;9.50;48.90
48589;DHT22;34369;51.174;6.738;2023-03-15T10:34:26;9.20;49.50
48589;DHT22;34369;51.174;6.738;2023-03-15T10:37:01;9.00;49.70
48589;DHT22;34369;51.174;6.738;2023-03-15T10:39:36;8.90;50.10
48589;DHT22;34369;51.174;6.738;2023-03-15T10:42:25;8.80;50.40
48589;DHT22;34369;51.174;6.738;2023-03-15T10:45:17;8.60;49.80
48589;DHT22;34369;51.174;6.738;2023-03-15T10:47:54;8.60;50.00
48589;DHT22;34369;51.174;6.738;2023-03-15T10:50:28;8.60;50.80
48589;DHT22;34369;51.174;6.738;2023-03-15T10:53:08;8.60;50.40
48589;DHT22;34369;51.174;6.738;2023-03-15T10:55:45;8.50;50.30
48589;DHT22;34369;51.174;6.738;2023-03-15T10:58:20;8.50;50.50
48589;DHT22;34369;51.174;6.738;2023-03-15T11:01:10;8.50;50.70
48589;DHT22;34369;51.174;6.738;2023-03-15T11:04:13;8.40;50.20
48589;DHT22;34369;51.174;6.738;2023-03-15T11:07:07;8.30;50.80
48589;DHT22;34369;51.174;6.738;2023-03-15T11:09:51;8.20;50.50
48589;DHT22;34369;51.174;6.738;2023-03-15T11:12:26;8.20;50.90
48589;DHT22;34369;51.174;6.738;2023-03-15T11:15:03;8.10;50.70
48589;DHT22;34369;51.174;6.738;2023-03-15T11:18:18;8.00;50.50
48589;DHT22;34369;51.174;6.738;2023-03-15T11:24:59;7.70;50.40
48589;DHT22;34369;51.174;6.738;2023-03-15T11:27:33;7.70;51.80
48589;DHT22;34369;51.174;6.738;2023-03-15T11:30:14;7.80;52.30
48589;DHT22;34369;51.174;6.738;2023-03-15T11:32:49;8.00;52.40
48589;DHT22;34369;51.174;6.738;2023-03-15T11:35:29;8.20;52.10
48589;DHT22;34369;51.174;6.738;2023-03-15T11:38:12;8.50;51.60
48589;DHT22;34369;51.174;6.738;2023-03-15T11:40:53;8.80;50.80
48589;DHT22;34369;51.174;6.738;2023-03-15T11:43:37;9.00;48.40
48589;DHT22;34369;51.174;6.738;2023-03-15T11:46:25;9.20;49.60
48589;DHT22;34369;51.174;6.738;2023-03-15T11:49:08;9.40;49.90
48589;DHT22;34369;51.174;6.738;2023-03-15T11:51:45;9.60;48.70
48589;DHT22;34369;51.174;6.738;2023-03-15T11:54:18;9.90;48.90
48589;DHT22;34369;51.174;6.738;2023-03-15T11:56:56;10.00;48.30
48589;DHT22;34369;51.174;6.738;2023-03-15T11:59:30;10.30;46.90
48589;DHT22;34369;51.174;6.738;2023-03-15T12:02:35;10.40;46.80
48589;DHT22;34369;51.174;6.738;2023-03-15T12:05:41;10.40;45.30
48589;DHT22;34369;51.174;6.738;2023-03-15T12:08:19;10.40;45.80
48589;DHT22;34369;51.174;6.738;2023-03-15T12:10:55;10.30;46.00
48589;DHT22;34369;51.174;6.738;2023-03-15T12:13:30;10.20;45.10
48589;DHT22;34369;51.174;6.738;2023-03-15T12:16:09;10.10;45.10
48589;DHT22;34369;51.174;6.738;2023-03-15T12:19:24;10.00;44.40
48589;DHT22;34369;51.174;6.738;2023-03-15T12:22:23;10.00;45.30
48589;DHT22;34369;51.174;6.738;2023-03-15T12:25:12;10.20;46.60
48589;DHT22;34369;51.174;6.738;2023-03-15T12:27:48;10.30;46.10
48589;DHT22;34369;51.174;6.738;2023-03-15T12:30:32;10.60;47.70
48589;DHT22;34369;51.174;6.738;2023-03-15T12:33:20;10.80;46.60
48589;DHT22;34369;51.174;6.738;2023-03-15T12:35:59;11.20;47.10
48589;DHT22;34369;51.174;6.738;2023-03-15T12:38:37;11.50;45.00
48589;DHT22;34369;51.174;6.738;2023-03-15T12:41:35;11.80;45.10
48589;DHT22;34369;51.174;6.738;2023-03-15T12:44:24;12.00;44.00
48589;DHT22;34369;51.174;6.738;2023-03-15T12:47:00;12.20;44.10
48589;DHT22;34369;51.174;6.738;2023-03-15T12:49:35;12.50;44.90
48589;DHT22;34369;51.174;6.738;2023-03-15T12:52:34;12.70;44.30
48589;DHT22;34369;51.174;6.738;2023-03-15T12:55:14;13.00;43.00
48589;DHT22;34369;51.174;6.738;2023-03-15T12:57:49;13.10;43.50
48589;DHT22;34369;51.174;6.738;2023-03-15T13:00:26;13.30;43.00
48589;DHT22;34369;51.174;6.738;2023-03-15T13:03:07;13.50;41.90
48589;DHT22;34369;51.174;6.738;2023-03-15T13:05:54;13.70;40.80
48589;DHT22;34369;51.174;6.738;2023-03-15T13:08:36;13.80;40.30
48589;DHT22;34369;51.174;6.738;2023-03-15T13:11:18;13.90;40.70
48589;DHT22;34369;51.174;6.738;2023-03-15T13:14:04;13.90;39.80
48589;DHT22;34369;51.174;6.738;2023-03-15T13:17:01;14.00;39.10
48589;DHT22;34369;51.174;6.738;2023-03-15T13:19:42;14.00;40.10
48589;DHT22;34369;51.174;6.738;2023-03-15T13:22:23;14.10;40.00
48589;DHT22;34369;51.174;6.738;2023-03-15T13:25:04;14.10;39.40
48589;DHT22;34369;51.174;6.738;2023-03-15T13:27:50;14.10;39.40
48589;DHT22;34369;51.174;6.738;2023-03-15T13:30:33;14.00;39.10
48589;DHT22;34369;51.174;6.738;2023-03-15T13:33:15;14.00;38.70
48589;DHT22;34369;51.174;6.738;2023-03-15T13:35:58;13.90;39.70
48589;DHT22;34369;51.174;6.738;2023-03-15T13:38:39;14.00;39.20
48589;DHT22;34369;51.174;6.738;2023-03-15T13:41:21;14.20;39.70
48589;DHT22;34369;51.174;6.738;2023-03-15T13:43:57;14.50;39.40
48589;DHT22;34369;51.174;6.738;2023-03-15T13:46:34;14.70;40.10
48589;DHT22;34369;51.174;6.738;2023-03-15T13:49:10;14.90;40.60
48589;DHT22;34369;51.174;6.738;2023-03-15T13:51:48;15.10;40.10
48589;DHT22;34369;51.174;6.738;2023-03-15T13:54:25;15.30;38.90
48589;DHT22;34369;51.174;6.738;2023-03-15T13:57:09;15.50;37.90
48589;DHT22;34369;51.174;6.738;2023-03-15T14:00:55;15.60;37.50
48589;DHT22;34369;51.174;6.738;2023-03-15T14:03:31;15.70;36.90
48589;DHT22;34369;51.174;6.738;2023-03-15T14:06:05;15.80;37.70
48589;DHT22;34369;51.174;6.738;2023-03-15T14:08:44;15.80;37.50
48589;DHT22;34369;51.174;6.738;2023-03-15T14:11:31;15.80;36.50
48589;DHT22;34369;51.174;6.738;2023-03-15T14:14:19;15.70;36.80
48589;DHT22;34369;51.174;6.738;2023-03-15T14:16:56;15.60;35.30
48589;DHT22;34369;51.174;6.738;2023-03-15T14:19:31;15.50;36.70
48589;DHT22;34369;51.174;6.738;2023-03-15T14:22:14;15.50;36.60
48589;DHT22;34369;51.174;6.738;2023-03-15T14:24:51;15.30;36.50
48589;DHT22;34369;51.174;6.738;2023-03-15T14:27:26;15.20;37.50
48589;DHT22;34369;51.174;6.738;2023-03-15T14:30:01;15.00;37.00
48589;DHT22;34369;51.174;6.738;2023-03-15T14:32:37;14.80;37.20
48589;DHT22;34369;51.174;6.738;2023-03-15T14:35:24;14.70;36.90
48589;DHT22;34369;51.174;6.738;2023-03-15T14:38:01;14.40;37.70
48589;DHT22;34369;51.174;6.738;2023-03-15T14:40:38;14.20;37.90
48589;DHT22;34369;51.174;6.738;2023-03-15T14:43:12;14.10;37.90
48589;DHT22;34369;51.174;6.738;2023-03-15T14:45:46;13.90;37.80
48589;DHT22;34369;51.174;6.738;2023-03-15T14:48:23;13.90;38.50
48589;DHT22;34369;51.174;6.738;2023-03-15T14:50:58;13.70;37.60
48589;DHT22;34369;51.174;6.738;2023-03-15T14:53:37;13.50;38.00
48589;DHT22;34369;51.174;6.738;2023-03-15T14:56:13;13.30;38.00
48589;DHT22;34369;51.174;6.738;2023-03-15T14:58:46;13.10;37.90
48589;DHT22;34369;51.174;6.738;2023-03-15T15:01:21;12.90;38.10
48589;DHT22;34369;51.174;6.738;2023-03-15T15:03:57;12.70;38.20
48589;DHT22;34369;51.174;6.738;2023-03-15T15:06:31;12.40;38.10
48589;DHT22;34369;51.174;6.738;2023-03-15T15:09:06;12.20;38.20
48589;DHT22;34369;51.174;6.738;2023-03-15T15:11:40;12.00;38.20
48589;DHT22;34369;51.174;6.738;2023-03-15T15:14:13;11.70;38.30
48589;DHT22;34369;51.174;6.738;2023-03-15T15:16:47;11.50;38.60
48589;DHT22;34369;51.174;6.738;2023-03-15T15:19:23;11.40;39.10
48589;DHT22;34369;51.174;6.738;2023-03-15T15:21:59;11.10;39.10
48589;DHT22;34369;51.174;6.738;2023-03-15T15:24:31;11.00;39.80
48589;DHT22;34369;51.174;6.738;2023-03-15T15:27:10;10.90;39.70
48589;DHT22;34369;51.174;6.738;2023-03-15T15:29:43;10.80;40.10
48589;DHT22;34369;51.174;6.738;2023-03-15T15:32:15;10.60;40.30
48589;DHT22;34369;51.174;6.738;2023-03-15T15:34:48;10.60;40.30
48589;DHT22;34369;51.174;6.738;2023-03-15T15:37:25;10.50;40.30
48589;DHT22;34369;51.174;6.738;2023-03-15T15:40:00;10.40;41.20
48589;DHT22;34369;51.174;6.738;2023-03-15T15:42:36;10.30;40.90
48589;DHT22;34369;51.174;6.738;2023-03-15T15:45:10;10.20;41.20
48589;DHT22;34369;51.174;6.738;2023-03-15T15:47:45;10.20;41.00
48589;DHT22;34369;51.174;6.738;2023-03-15T15:50:20;10.10;42.10
48589;DHT22;34369;51.174;6.738;2023-03-15T15:52:56;10.00;41.70
48589;DHT22;34369;51.174;6.738;2023-03-15T15:55:31;10.00;41.70
48589;DHT22;34369;51.174;6.738;2023-03-15T15:58:11;10.00;41.50
48589;DHT22;34369;51.174;6.738;2023-03-15T16:00:46;10.00;41.20
48589;DHT22;34369;51.174;6.738;2023-03-15T16:03:19;9.80;41.90
48589;DHT22;34369;51.174;6.738;2023-03-15T16:05:53;9.80;41.50
48589;DHT22;34369;51.174;6.738;2023-03-15T16:08:31;9.80;41.20
48589;DHT22;34369;51.174;6.738;2023-03-15T16:11:09;9.70;41.30
48589;DHT22;34369;51.174;6.738;2023-03-15T16:13:45;9.70;41.40
48589;DHT22;34369;51.174;6.738;2023-03-15T16:16:19;9.70;41.70
48589;DHT22;34369;51.174;6.738;2023-03-15T16:18:53;9.60;41.90
48589;DHT22;34369;51.174;6.738;2023-03-15T16:21:32;9.60;42.00
48589;DHT22;34369;51.174;6.738;2023-03-15T16:24:12;9.50;41.40
48589;DHT22;34369;51.174;6.738;2023-03-15T16:27:20;9.50;41.60
48589;DHT22;34369;51.174;6.738;2023-03-15T16:29:58;9.40;41.20
48589;DHT22;34369;51.174;6.738;2023-03-15T16:32:33;9.40;40.90
48589;DHT22;34369;51.174;6.738;2023-03-15T16:35:26;9.30;41.00
48589;DHT22;34369;51.174;6.738;2023-03-15T16:38:13;9.20;40.80
48589;DHT22;34369;51.174;6.738;2023-03-15T16:44:12;9.00;41.30
48589;DHT22;34369;51.174;6.738;2023-03-15T16:46:57;8.90;41.80
48589;DHT22;34369;51.174;6.738;2023-03-15T16:49:46;8.80;41.50
48589;DHT22;34369;51.174;6.738;2023-03-15T16:53:06;8.70;41.80
48589;DHT22;34369;51.174;6.738;2023-03-15T16:56:12;8.60;42.00
48589;DHT22;34369;51.174;6.738;2023-03-15T16:58:51;8.50;41.70
48589;DHT22;34369;51.174;6.738;2023-03-15T17:01:33;8.40;42.10